Time;durP1;ratioP1;P1;durP2;ratioP2;P2;SDS_P1;SDS_P2;PMS_P1;PMS_P2;Temp;Humidity;BMP_temperature;BMP_pressure;BME280_temperature;BME280_humidity;BME280_pressure;Samples;Min_cycle;Max_cycle;Signal;HPM_P1;HPM_P2
2022/01/18 00:01:48;;;;;;;41.83;23.38;;;;;;;;;;5055647;28;20493;-48
2022/01/18 00:04:13;;;;;;;27.58;19.67;;;;;;;;;;5053930;28;20110;-49
2022/01/18 00:06:41;;;;;;;28.63;18.75;;;;;;;;;;5056024;28;20025;-49
2022/01/18 00:09:07;;;;;;;21.48;13.82;;;;;;;;;;5055314;28;20508;-48
2022/01/18 00:11:40;;;;;;;34.22;15.68;;;;;;;;;;5057337;28;20056;-48
2022/01/18 00:14:13;;;;;;;26.95;15.93;;;;;;;;;;5052040;28;20516;-48
2022/01/18 00:16:59;;;;;;;22.90;17.40;;;;;;;;;;5052759;28;20071;-48
2022/01/18 00:19:24;;;;;;;30.13;18.60;;;;;;;;;;5056807;28;20041;-46
2022/01/18 00:22:12;;;;;;;41.95;25.67;;;;;;;;;;5053070;28;20108;-51
2022/01/18 00:24:39;;;;;;;29.33;18.83;;;;;;;;;;5053515;28;20043;-47
2022/01/18 00:27:09;;;;;;;35.35;23.83;;;;;;;;;;5055274;28;20078;-46
2022/01/18 00:29:38;;;;;;;29.92;22.42;;;;;;;;;;5054164;28;20375;-46
2022/01/18 00:32:14;;;;;;;41.40;22.27;;;;;;;;;;5056463;28;20021;-48
2022/01/18 00:34:41;;;;;;;49.80;29.08;;;;;;;;;;5053984;28;20029;-48
2022/01/18 00:39:32;;;;;;;58.08;32.83;;;;;;;;;;5057580;28;20104;-48
2022/01/18 00:41:57;;;;;;;63.60;36.60;;;;;;;;;;5054079;28;20040;-46
2022/01/18 00:44:22;;;;;;;56.80;36.90;;;;;;;;;;5048235;28;20096;-48
2022/01/18 00:46:48;;;;;;;77.70;40.53;;;;;;;;;;5053229;28;20029;-47
2022/01/18 00:49:14;;;;;;;52.28;35.10;;;;;;;;;;5052826;28;20025;-47
2022/01/18 00:51:41;;;;;;;25.25;18.98;;;;;;;;;;5056433;28;20071;-45
2022/01/18 00:54:08;;;;;;;14.82;10.98;;;;;;;;;;5055877;28;20025;-44
2022/01/18 00:56:38;;;;;;;20.30;11.38;;;;;;;;;;5052135;28;20560;-48
2022/01/18 00:59:04;;;;;;;23.60;14.43;;;;;;;;;;5056307;28;20484;-48
2022/01/18 01:01:30;;;;;;;22.02;13.43;;;;;;;;;;5054350;28;20127;-45
2022/01/18 01:04:00;;;;;;;26.98;19.20;;;;;;;;;;5053838;28;20468;-50
2022/01/18 01:06:25;;;;;;;27.95;16.70;;;;;;;;;;5053091;28;20112;-48
2022/01/18 01:08:51;;;;;;;33.28;21.77;;;;;;;;;;5052560;28;20534;-49
2022/01/18 01:11:16;;;;;;;59.78;42.90;;;;;;;;;;5055710;28;20025;-45
2022/01/18 01:13:44;;;;;;;46.13;21.63;;;;;;;;;;5055188;28;20560;-47
2022/01/18 01:16:31;;;;;;;29.08;24.58;;;;;;;;;;5060814;28;20039;-48
2022/01/18 01:45:20;;;;;;;24.65;19.45;;;;;;;;;;5061545;28;20469;-39
2022/01/18 01:47:50;;;;;;;20.88;14.20;;;;;;;;;;5057135;28;20036;-38
2022/01/18 01:50:19;;;;;;;28.77;17.13;;;;;;;;;;5056153;28;20091;-39
2022/01/18 01:52:44;;;;;;;20.55;12.52;;;;;;;;;;5054763;28;20029;-39
2022/01/18 01:55:10;;;;;;;27.35;13.57;;;;;;;;;;5056196;28;20139;-38
2022/01/18 01:57:36;;;;;;;17.10;11.40;;;;;;;;;;5055073;28;20020;-38
2022/01/18 02:00:06;;;;;;;47.28;20.65;;;;;;;;;;5056154;28;20067;-38
2022/01/18 02:02:31;;;;;;;38.05;23.05;;;;;;;;;;5058264;28;20115;-39
2022/01/18 02:04:57;;;;;;;42.50;23.20;;;;;;;;;;5056906;28;20116;-39
2022/01/18 02:07:22;;;;;;;25.95;16.85;;;;;;;;;;5055245;28;20418;-38
2022/01/18 02:09:47;;;;;;;20.20;15.38;;;;;;;;;;5052512;28;20093;-40
2022/01/18 02:12:13;;;;;;;48.42;25.88;;;;;;;;;;5059598;28;20059;-37
2022/01/18 02:14:40;;;;;;;41.15;27.83;;;;;;;;;;5057292;28;20668;-39
2022/01/18 02:22:33;;;;;;;23.38;10.05;;;;;;;;;;5055691;28;20094;-38
2022/01/18 02:24:59;;;;;;;23.95;14.65;;;;;;;;;;5055949;28;20024;-38
2022/01/18 02:27:24;;;;;;;15.98;9.45;;;;;;;;;;5058725;28;20030;-38
2022/01/18 02:29:49;;;;;;;13.75;10.32;;;;;;;;;;5054360;28;20103;-40
2022/01/18 02:32:15;;;;;;;11.38;8.65;;;;;;;;;;5055963;28;20032;-39
2022/01/18 02:34:40;;;;;;;10.82;9.73;;;;;;;;;;5058229;28;20021;-40
2022/01/18 02:37:05;;;;;;;16.45;11.05;;;;;;;;;;5058988;28;20028;-39
2022/01/18 02:39:31;;;;;;;35.20;19.90;;;;;;;;;;5057330;28;20489;-38
2022/01/18 02:41:58;;;;;;;28.60;15.20;;;;;;;;;;5055922;28;20012;-38
2022/01/18 02:44:24;;;;;;;34.95;15.98;;;;;;;;;;5055201;28;20435;-37
2022/01/18 02:46:49;;;;;;;29.80;16.70;;;;;;;;;;5056873;28;20392;-38
2022/01/18 02:49:15;;;;;;;20.20;11.55;;;;;;;;;;5056241;28;20013;-37
2022/01/18 02:51:40;;;;;;;17.58;9.13;;;;;;;;;;5054673;28;20701;-37
2022/01/18 02:54:06;;;;;;;12.85;6.47;;;;;;;;;;5061147;28;20048;-37
2022/01/18 02:56:33;;;;;;;9.88;6.30;;;;;;;;;;5052055;28;20119;-37
2022/01/18 02:59:25;;;;;;;17.70;10.43;;;;;;;;;;5056727;28;20021;-38
2022/01/18 03:04:41;;;;;;;15.68;9.18;;;;;;;;;;5054475;28;20087;-38
2022/01/18 03:07:07;;;;;;;19.13;10.90;;;;;;;;;;5060927;28;20135;-40
2022/01/18 03:09:32;;;;;;;49.10;23.75;;;;;;;;;;5055458;28;20100;-38
2022/01/18 03:11:57;;;;;;;36.83;17.48;;;;;;;;;;5057394;28;20492;-37
2022/01/18 03:14:23;;;;;;;21.98;11.68;;;;;;;;;;5059195;28;20039;-38
2022/01/18 03:16:48;;;;;;;16.13;13.00;;;;;;;;;;5054046;28;20029;-38
2022/01/18 03:19:14;;;;;;;15.82;11.50;;;;;;;;;;5052650;28;20099;-41
2022/01/18 03:21:40;;;;;;;15.95;10.23;;;;;;;;;;5059093;28;20489;-40
2022/01/18 03:24:20;;;;;;;17.67;8.82;;;;;;;;;;5052566;28;20885;-38
2022/01/18 03:29:31;;;;;;;32.88;17.38;;;;;;;;;;5038064;28;20032;-38
2022/01/18 03:31:56;;;;;;;41.50;19.80;;;;;;;;;;5056860;28;20553;-37
2022/01/18 03:34:22;;;;;;;42.95;18.90;;;;;;;;;;5057144;28;20032;-38
2022/01/18 03:36:47;;;;;;;34.33;17.15;;;;;;;;;;5054991;28;20013;-37
2022/01/18 03:39:12;;;;;;;31.85;15.82;;;;;;;;;;5058352;28;20099;-38
2022/01/18 03:41:38;;;;;;;25.90;17.92;;;;;;;;;;5053554;28;20024;-38
2022/01/18 03:44:03;;;;;;;30.88;15.65;;;;;;;;;;5053592;28;20025;-43
2022/01/18 03:46:29;;;;;;;30.05;15.18;;;;;;;;;;5054211;28;20197;-40
2022/01/18 03:48:54;;;;;;;18.13;10.32;;;;;;;;;;5055729;28;20032;-38
2022/01/18 03:51:20;;;;;;;16.10;7.68;;;;;;;;;;5056374;28;20017;-37
2022/01/18 03:53:45;;;;;;;9.73;7.22;;;;;;;;;;5055720;28;20028;-37
2022/01/18 03:56:11;;;;;;;7.05;4.95;;;;;;;;;;5054552;28;20612;-37
2022/01/18 03:58:36;;;;;;;10.57;6.70;;;;;;;;;;5053431;28;20020;-36
2022/01/18 04:01:02;;;;;;;9.98;6.35;;;;;;;;;;5054908;28;20047;-37
2022/01/18 04:03:28;;;;;;;13.90;7.65;;;;;;;;;;5052008;28;20028;-36
2022/01/18 04:05:53;;;;;;;15.77;8.25;;;;;;;;;;5052408;28;20013;-36
2022/01/18 04:08:19;;;;;;;12.38;7.53;;;;;;;;;;5055859;28;20470;-38
2022/01/18 04:10:45;;;;;;;15.43;8.13;;;;;;;;;;5058085;28;20036;-36
2022/01/18 04:13:10;;;;;;;13.48;8.52;;;;;;;;;;5056596;28;20021;-36
2022/01/18 04:15:35;;;;;;;15.35;9.38;;;;;;;;;;5055391;28;20024;-37
2022/01/18 04:26:03;;;;;;;13.82;9.25;;;;;;;;;;5053536;28;20029;-36
2022/01/18 04:31:01;;;;;;;11.73;7.05;;;;;;;;;;5055514;28;20024;-37
2022/01/18 04:33:27;;;;;;;12.32;5.70;;;;;;;;;;5055068;28;20477;-36
2022/01/18 04:35:52;;;;;;;8.20;6.25;;;;;;;;;;5056254;28;20027;-37
2022/01/18 04:38:17;;;;;;;12.48;5.88;;;;;;;;;;5058533;28;20025;-37
2022/01/18 04:40:45;;;;;;;5.65;4.50;;;;;;;;;;5062215;28;20125;-37
2022/01/18 04:48:40;;;;;;;12.57;6.88;;;;;;;;;;5055702;28;20539;-37
2022/01/18 04:51:10;;;;;;;11.27;7.90;;;;;;;;;;5058503;28;20078;-37
2022/01/18 04:53:38;;;;;;;10.98;8.23;;;;;;;;;;5053180;28;20028;-37
2022/01/18 04:56:08;;;;;;;21.25;12.23;;;;;;;;;;5051682;28;20060;-38
2022/01/18 04:58:33;;;;;;;22.38;14.13;;;;;;;;;;5055029;28;20489;-37
2022/01/18 05:01:00;;;;;;;11.00;7.65;;;;;;;;;;5057835;28;20032;-37
2022/01/18 05:03:26;;;;;;;18.77;13.98;;;;;;;;;;5052558;28;20031;-37
2022/01/18 05:05:55;;;;;;;17.38;15.48;;;;;;;;;;5057877;28;20481;-37
2022/01/18 05:08:21;;;;;;;18.50;11.73;;;;;;;;;;5055399;28;20119;-37
2022/01/18 05:10:52;;;;;;;25.90;12.63;;;;;;;;;;5054944;28;20100;-37
2022/01/18 05:15:59;;;;;;;8.07;6.95;;;;;;;;;;5057457;28;20030;-38
2022/01/18 05:21:19;;;;;;;14.60;5.72;;;;;;;;;;5054450;28;20079;-37
2022/01/18 05:23:45;;;;;;;5.55;4.63;;;;;;;;;;5054382;28;20024;-37
2022/01/18 05:26:10;;;;;;;8.70;4.43;;;;;;;;;;5053518;28;20017;-37
2022/01/18 05:28:35;;;;;;;8.27;4.53;;;;;;;;;;5052488;28;20473;-37
2022/01/18 05:31:01;;;;;;;5.93;4.47;;;;;;;;;;5052478;28;20020;-37
2022/01/18 05:33:26;;;;;;;11.68;5.50;;;;;;;;;;5055409;28;20024;-37
2022/01/18 05:35:51;;;;;;;10.70;7.72;;;;;;;;;;5053488;28;20024;-38
2022/01/18 05:38:16;;;;;;;8.75;6.90;;;;;;;;;;5053939;28;20452;-37
2022/01/18 05:40:42;;;;;;;37.83;33.97;;;;;;;;;;5051706;28;20029;-38
2022/01/18 05:43:07;;;;;;;11.02;8.60;;;;;;;;;;5055466;28;20586;-37
2022/01/18 05:45:32;;;;;;;10.93;9.73;;;;;;;;;;5057665;28;20365;-38
2022/01/18 05:47:58;;;;;;;10.32;7.35;;;;;;;;;;5054519;28;20428;-38
2022/01/18 05:50:23;;;;;;;13.82;10.27;;;;;;;;;;5053386;28;20552;-37
2022/01/18 05:52:48;;;;;;;9.93;7.68;;;;;;;;;;5052193;28;20547;-37
2022/01/18 05:55:14;;;;;;;8.57;7.00;;;;;;;;;;5058668;28;20074;-37
2022/01/18 05:57:39;;;;;;;12.07;9.45;;;;;;;;;;5060907;28;20040;-38
2022/01/18 06:00:07;;;;;;;22.98;16.70;;;;;;;;;;5056131;28;20027;-37
2022/01/18 06:07:42;;;;;;;12.77;11.02;;;;;;;;;;5054702;28;20067;-37
2022/01/18 06:10:07;;;;;;;15.02;10.88;;;;;;;;;;5057953;28;20020;-38
2022/01/18 06:12:33;;;;;;;13.13;10.27;;;;;;;;;;5057755;28;20544;-37
2022/01/18 06:14:58;;;;;;;15.30;8.35;;;;;;;;;;5057880;28;20031;-36
2022/01/18 06:17:24;;;;;;;8.15;6.60;;;;;;;;;;5061307;28;20065;-38
2022/01/18 06:19:49;;;;;;;9.27;8.32;;;;;;;;;;5056865;28;20078;-37
2022/01/18 06:22:14;;;;;;;9.27;8.38;;;;;;;;;;5057213;28;20112;-38
2022/01/18 06:24:40;;;;;;;13.02;10.52;;;;;;;;;;5057143;28;20514;-37
2022/01/18 06:27:05;;;;;;;13.90;12.43;;;;;;;;;;5056354;28;20287;-40
2022/01/18 06:29:30;;;;;;;20.55;13.85;;;;;;;;;;5054295;28;20055;-37
2022/01/18 06:31:56;;;;;;;18.55;14.98;;;;;;;;;;5056675;28;20049;-37
2022/01/18 06:34:21;;;;;;;18.10;14.75;;;;;;;;;;5052623;28;20074;-37
2022/01/18 06:36:46;;;;;;;11.45;9.43;;;;;;;;;;5053363;28;20112;-37
2022/01/18 06:39:12;;;;;;;14.90;10.57;;;;;;;;;;5053084;28;20104;-37
2022/01/18 06:41:41;;;;;;;8.70;7.68;;;;;;;;;;5053731;28;20373;-38
2022/01/18 06:44:06;;;;;;;10.85;8.43;;;;;;;;;;5053922;28;20120;-38
2022/01/18 06:46:32;;;;;;;21.08;6.82;;;;;;;;;;5052752;28;20600;-37
2022/01/18 06:48:57;;;;;;;8.68;6.97;;;;;;;;;;5054553;28;20043;-37
2022/01/18 06:51:22;;;;;;;9.20;8.02;;;;;;;;;;5056447;28;20017;-37
2022/01/18 06:53:48;;;;;;;14.63;7.90;;;;;;;;;;5057205;28;20012;-38
2022/01/18 06:56:15;;;;;;;8.27;7.25;;;;;;;;;;5054783;28;20494;-39
2022/01/18 06:58:40;;;;;;;18.02;11.60;;;;;;;;;;5060081;28;20112;-38
2022/01/18 07:01:06;;;;;;;25.35;11.32;;;;;;;;;;5055729;28;20139;-38
2022/01/18 07:03:31;;;;;;;18.13;16.45;;;;;;;;;;5057955;28;20025;-47
2022/01/18 07:05:57;;;;;;;22.10;12.82;;;;;;;;;;5051688;28;20536;-49
2022/01/18 07:08:22;;;;;;;23.23;12.05;;;;;;;;;;5051522;28;20520;-46
2022/01/18 07:10:47;;;;;;;21.08;11.38;;;;;;;;;;5058146;28;20024;-51
2022/01/18 07:13:14;;;;;;;22.13;15.85;;;;;;;;;;5054085;28;20035;-52
2022/01/18 07:15:39;;;;;;;27.05;19.92;;;;;;;;;;5057827;28;20041;-52
2022/01/18 07:18:06;;;;;;;29.40;26.38;;;;;;;;;;5052264;28;20052;-47
2022/01/18 07:20:32;;;;;;;22.00;18.83;;;;;;;;;;5056880;28;20485;-50
2022/01/18 07:22:57;;;;;;;23.17;20.73;;;;;;;;;;5055858;28;20020;-50
2022/01/18 07:25:25;;;;;;;23.15;20.25;;;;;;;;;;5059376;28;20487;-48
2022/01/18 07:27:50;;;;;;;30.83;23.63;;;;;;;;;;5055707;28;20094;-52
2022/01/18 07:30:16;;;;;;;37.42;24.73;;;;;;;;;;5056067;28;20610;-49
2022/01/18 07:32:41;;;;;;;31.67;24.83;;;;;;;;;;5055605;28;20059;-52
2022/01/18 07:35:08;;;;;;;38.63;25.95;;;;;;;;;;5056599;28;20043;-52
2022/01/18 07:37:33;;;;;;;30.65;27.23;;;;;;;;;;5057226;28;20051;-49
2022/01/18 07:39:58;;;;;;;36.63;27.33;;;;;;;;;;5054567;28;20025;-49
2022/01/18 07:42:24;;;;;;;53.53;26.92;;;;;;;;;;5055977;28;20126;-50
2022/01/18 07:44:49;;;;;;;34.55;24.80;;;;;;;;;;5055538;28;20477;-51
2022/01/18 07:47:15;;;;;;;34.70;30.73;;;;;;;;;;5054588;28;20020;-49
2022/01/18 07:49:40;;;;;;;33.75;26.70;;;;;;;;;;5059588;28;20371;-50
2022/01/18 07:52:05;;;;;;;33.78;26.95;;;;;;;;;;5055433;28;20019;-51
2022/01/18 07:54:31;;;;;;;42.50;31.15;;;;;;;;;;5056091;28;20127;-50
2022/01/18 07:56:57;;;;;;;52.65;32.45;;;;;;;;;;5057638;28;20086;-51
2022/01/18 07:59:22;;;;;;;64.70;41.40;;;;;;;;;;5057382;28;20462;-52
2022/01/18 08:01:47;;;;;;;69.32;43.42;;;;;;;;;;5049456;28;20464;-50
2022/01/18 08:04:13;;;;;;;91.18;43.67;;;;;;;;;;5055069;28;20029;-53
2022/01/18 08:06:40;;;;;;;66.70;43.42;;;;;;;;;;5057627;28;20081;-51
2022/01/18 08:09:05;;;;;;;52.42;41.45;;;;;;;;;;5054262;28;20021;-48
2022/01/18 08:11:31;;;;;;;70.45;45.22;;;;;;;;;;5055901;28;20477;-35
2022/01/18 08:14:00;;;;;;;72.63;49.63;;;;;;;;;;5054978;28;20605;-36
2022/01/18 08:18:55;;;;;;;56.00;43.00;;;;;;;;;;5051992;28;20109;-36
2022/01/18 08:21:21;;;;;;;73.90;48.88;;;;;;;;;;5052553;28;20048;-36
2022/01/18 08:23:46;;;;;;;70.25;58.58;;;;;;;;;;5054910;28;20530;-36
2022/01/18 08:26:11;;;;;;;79.53;53.38;;;;;;;;;;5051510;28;20571;-36
2022/01/18 08:28:37;;;;;;;78.18;60.03;;;;;;;;;;5058706;28;20587;-35
2022/01/18 08:31:03;;;;;;;85.97;56.25;;;;;;;;;;5053960;28;20021;-36
2022/01/18 08:33:31;;;;;;;87.80;64.32;;;;;;;;;;5051831;28;20021;-36
2022/01/18 08:35:59;;;;;;;68.13;49.55;;;;;;;;;;5057676;28;20025;-37
2022/01/18 08:38:25;;;;;;;68.78;54.55;;;;;;;;;;5051682;28;20115;-36
2022/01/18 08:40:50;;;;;;;73.65;53.50;;;;;;;;;;5054273;28;20028;-36
2022/01/18 08:43:15;;;;;;;62.80;45.72;;;;;;;;;;5055293;28;20021;-37
2022/01/18 08:45:44;;;;;;;54.75;43.60;;;;;;;;;;5055306;28;20024;-37
2022/01/18 08:48:09;;;;;;;85.95;48.10;;;;;;;;;;5051550;28;20021;-37
2022/01/18 08:50:34;;;;;;;75.53;40.97;;;;;;;;;;5052185;28;20027;-36
2022/01/18 08:53:00;;;;;;;69.35;48.38;;;;;;;;;;5052944;28;20009;-36
2022/01/18 08:55:25;;;;;;;60.83;47.88;;;;;;;;;;5055367;28;20119;-36
2022/01/18 08:57:50;;;;;;;77.68;55.92;;;;;;;;;;5054294;28;20086;-39
2022/01/18 09:00:16;;;;;;;71.05;56.20;;;;;;;;;;5052379;28;20483;-37
2022/01/18 09:02:42;;;;;;;83.00;59.63;;;;;;;;;;5054170;28;20047;-37
2022/01/18 09:05:07;;;;;;;90.20;65.15;;;;;;;;;;5054636;28;21172;-37
2022/01/18 09:07:35;;;;;;;83.53;62.03;;;;;;;;;;5051897;28;20673;-36
2022/01/18 09:10:07;;;;;;;85.68;69.22;;;;;;;;;;5055739;28;20032;-37
2022/01/18 09:12:33;;;;;;;87.22;64.28;;;;;;;;;;5053086;28;20044;-36
2022/01/18 09:15:00;;;;;;;94.18;63.05;;;;;;;;;;5053730;28;20151;-38
2022/01/18 09:17:28;;;;;;;82.68;58.35;;;;;;;;;;5052177;28;20037;-37
2022/01/18 09:19:53;;;;;;;69.38;56.65;;;;;;;;;;5054219;28;20417;-37
2022/01/18 09:22:18;;;;;;;70.70;52.67;;;;;;;;;;5050941;28;20630;-37
2022/01/18 09:24:44;;;;;;;55.20;45.60;;;;;;;;;;5053591;28;20048;-37
2022/01/18 09:27:09;;;;;;;53.85;45.03;;;;;;;;;;5054365;28;20054;-37
2022/01/18 09:29:34;;;;;;;60.63;45.63;;;;;;;;;;5053899;28;20740;-37
2022/01/18 09:32:00;;;;;;;46.00;33.35;;;;;;;;;;5050771;28;20020;-38
2022/01/18 09:34:25;;;;;;;47.38;34.88;;;;;;;;;;5050428;28;20473;-37
2022/01/18 09:36:53;;;;;;;49.72;38.58;;;;;;;;;;5056004;28;20033;-38
2022/01/18 09:39:19;;;;;;;31.08;26.55;;;;;;;;;;5055810;28;20053;-37
2022/01/18 09:41:48;;;;;;;33.63;25.40;;;;;;;;;;5053846;28;20032;-37
2022/01/18 09:44:13;;;;;;;20.02;17.90;;;;;;;;;;5054001;28;20884;-38
2022/01/18 09:46:38;;;;;;;21.48;19.38;;;;;;;;;;5053978;28;20032;-40
2022/01/18 09:49:05;;;;;;;28.33;25.67;;;;;;;;;;5051967;28;20532;-38
2022/01/18 09:51:34;;;;;;;28.02;21.73;;;;;;;;;;5053372;28;20438;-38
2022/01/18 09:54:05;;;;;;;28.08;24.88;;;;;;;;;;5057835;28;20024;-38
2022/01/18 09:56:30;;;;;;;38.78;31.58;;;;;;;;;;5052615;28;20053;-39
2022/01/18 09:58:56;;;;;;;45.78;38.50;;;;;;;;;;5055602;28;20032;-39
2022/01/18 10:01:21;;;;;;;56.42;40.13;;;;;;;;;;5061793;28;20508;-38
2022/01/18 10:03:47;;;;;;;62.40;37.92;;;;;;;;;;5057318;28;20070;-38
2022/01/18 10:06:12;;;;;;;44.85;40.08;;;;;;;;;;5058652;28;20027;-38
2022/01/18 10:08:42;;;;;;;41.42;37.22;;;;;;;;;;5054741;28;20108;-38
2022/01/18 10:11:10;;;;;;;38.30;34.45;;;;;;;;;;5058560;28;20025;-40
2022/01/18 10:13:36;;;;;;;41.45;34.25;;;;;;;;;;5056139;28;20021;-38
2022/01/18 10:16:01;;;;;;;31.65;27.05;;;;;;;;;;5052922;28;20417;-40
2022/01/18 10:18:34;;;;;;;54.05;43.65;;;;;;;;;;5054021;28;20033;-39
2022/01/18 10:21:00;;;;;;;39.90;31.08;;;;;;;;;;5053258;28;20033;-40
2022/01/18 10:23:25;;;;;;;27.55;24.45;;;;;;;;;;5060192;28;20036;-38
2022/01/18 10:25:51;;;;;;;21.75;19.50;;;;;;;;;;5056687;28;20070;-39
2022/01/18 10:28:30;;;;;;;18.42;16.00;;;;;;;;;;5053409;28;20036;-39
2022/01/18 10:30:55;;;;;;;13.80;6.50;;;;;;;;;;5054653;28;20127;-39
2022/01/18 10:33:27;;;;;;;9.88;3.13;;;;;;;;;;5055865;28;20021;-39
2022/01/18 10:36:02;;;;;;;7.78;4.35;;;;;;;;;;5052642;28;20025;-40
2022/01/18 10:38:27;;;;;;;6.13;3.75;;;;;;;;;;5054518;28;20028;-39
2022/01/18 10:40:52;;;;;;;4.15;2.67;;;;;;;;;;5053560;28;20020;-40
2022/01/18 10:43:32;;;;;;;5.18;2.60;;;;;;;;;;5054692;28;20063;-39
2022/01/18 10:46:11;;;;;;;4.80;3.97;;;;;;;;;;5054639;28;20039;-40
2022/01/18 10:48:44;;;;;;;12.13;10.82;;;;;;;;;;5050421;28;20028;-41
2022/01/18 10:51:24;;;;;;;26.10;13.45;;;;;;;;;;5053189;28;20308;-39
2022/01/18 10:53:57;;;;;;;19.48;12.77;;;;;;;;;;5059575;28;20029;-39
2022/01/18 10:56:22;;;;;;;18.75;13.85;;;;;;;;;;5057295;28;20052;-39
2022/01/18 10:58:48;;;;;;;16.70;12.55;;;;;;;;;;5053621;28;20017;-43
2022/01/18 11:01:17;;;;;;;18.90;15.50;;;;;;;;;;5049411;28;20473;-39
2022/01/18 11:04:01;;;;;;;23.92;19.08;;;;;;;;;;5055020;28;20036;-41
2022/01/18 11:06:27;;;;;;;16.33;14.63;;;;;;;;;;5055652;28;20029;-38
2022/01/18 11:08:52;;;;;;;11.45;9.35;;;;;;;;;;5055030;28;20513;-39
2022/01/18 11:11:24;;;;;;;16.98;12.18;;;;;;;;;;5053892;28;20021;-39
2022/01/18 11:13:50;;;;;;;12.10;10.25;;;;;;;;;;5055255;28;20044;-40
2022/01/18 11:16:23;;;;;;;15.05;12.45;;;;;;;;;;5055111;28;20532;-40
2022/01/18 11:18:49;;;;;;;13.55;10.85;;;;;;;;;;5060084;28;20032;-43
2022/01/18 11:21:18;;;;;;;13.25;11.90;;;;;;;;;;5054127;28;20021;-44
2022/01/18 11:23:44;;;;;;;19.27;14.43;;;;;;;;;;5054631;28;20024;-42
2022/01/18 11:26:10;;;;;;;27.65;19.63;;;;;;;;;;5054682;28;20154;-41
2022/01/18 11:28:37;;;;;;;22.25;10.98;;;;;;;;;;5056166;28;20021;-40
2022/01/18 11:31:02;;;;;;;16.08;12.90;;;;;;;;;;5054424;28;20124;-40
2022/01/18 11:33:30;;;;;;;21.17;13.93;;;;;;;;;;5056511;28;20663;-40
2022/01/18 11:35:58;;;;;;;15.50;12.30;;;;;;;;;;5055539;28;20020;-40
2022/01/18 11:38:48;;;;;;;6.88;5.93;;;;;;;;;;5056421;28;20021;-40
2022/01/18 11:41:31;;;;;;;25.77;7.70;;;;;;;;;;5054288;28;20134;-41
2022/01/18 11:43:59;;;;;;;9.15;8.23;;;;;;;;;;5055170;28;20024;-41
2022/01/18 11:46:26;;;;;;;12.38;7.57;;;;;;;;;;5055080;28;20104;-43
2022/01/18 11:49:18;;;;;;;16.45;9.82;;;;;;;;;;5054799;28;20032;-39
2022/01/18 11:51:48;;;;;;;10.38;8.73;;;;;;;;;;5051940;28;20025;-39
2022/01/18 11:57:23;;;;;;;14.73;10.17;;;;;;;;;;5056110;28;20477;-41
2022/01/18 11:59:54;;;;;;;20.33;11.43;;;;;;;;;;5056029;28;20044;-40
2022/01/18 12:02:29;;;;;;;9.50;8.32;;;;;;;;;;5059948;28;20017;-41
2022/01/18 12:04:57;;;;;;;14.38;11.20;;;;;;;;;;5056075;28;20494;-42
2022/01/18 12:07:36;;;;;;;16.50;12.68;;;;;;;;;;5051439;28;20028;-44
2022/01/18 12:10:03;;;;;;;17.17;11.10;;;;;;;;;;5056381;28;20024;-40
2022/01/18 12:12:45;;;;;;;10.52;9.10;;;;;;;;;;5056274;28;20103;-41
2022/01/18 12:15:19;;;;;;;10.20;9.18;;;;;;;;;;5051216;28;20029;-42
2022/01/18 12:17:50;;;;;;;15.48;9.98;;;;;;;;;;5057632;28;20027;-40
2022/01/18 12:20:34;;;;;;;11.70;8.23;;;;;;;;;;5052021;28;20032;-43
2022/01/18 12:23:06;;;;;;;9.48;7.47;;;;;;;;;;5053450;28;20029;-42
2022/01/18 12:25:56;;;;;;;10.60;6.82;;;;;;;;;;5053481;28;20020;-40
2022/01/18 12:28:46;;;;;;;14.32;8.02;;;;;;;;;;5051241;28;20521;-42
2022/01/18 12:31:40;;;;;;;11.05;9.05;;;;;;;;;;5055549;28;20044;-43
2022/01/18 12:34:32;;;;;;;12.02;10.82;;;;;;;;;;5052883;28;20104;-42
2022/01/18 12:36:57;;;;;;;;;;;;;;;;;;5051200;28;20354;-40
2022/01/18 12:39:23;;;;;;;9.77;5.82;;;;;;;;;;5053184;28;20365;-40
2022/01/18 12:41:53;;;;;;;8.65;6.07;;;;;;;;;;5059457;28;20025;-41
2022/01/18 12:44:21;;;;;;;24.42;9.15;;;;;;;;;;5054839;28;20059;-45
2022/01/18 12:46:57;;;;;;;16.05;11.40;;;;;;;;;;5053900;28;20064;-39
2022/01/18 12:49:23;;;;;;;10.63;7.30;;;;;;;;;;5052836;28;20016;-42
2022/01/18 12:51:55;;;;;;;11.23;8.80;;;;;;;;;;5054552;28;20043;-43
2022/01/18 12:54:20;;;;;;;12.63;7.93;;;;;;;;;;5051963;28;20500;-41
2022/01/18 12:56:45;;;;;;;144.93;119.95;;;;;;;;;;5049283;28;20065;-40
2022/01/18 12:59:11;;;;;;;30.05;23.48;;;;;;;;;;5055040;28;20428;-40
2022/01/18 13:01:37;;;;;;;10.98;7.53;;;;;;;;;;5051659;28;20389;-39
2022/01/18 13:04:06;;;;;;;10.57;9.57;;;;;;;;;;5049240;28;20744;-40
2022/01/18 13:06:33;;;;;;;15.10;8.73;;;;;;;;;;5051522;28;20025;-39
2022/01/18 13:09:00;;;;;;;14.75;10.00;;;;;;;;;;5049193;28;20029;-38
2022/01/18 13:11:29;;;;;;;11.93;7.32;;;;;;;;;;5051547;28;20027;-41
2022/01/18 13:26:59;;;;;;;5.50;3.90;;;;;;;;;;5058204;28;20020;-37
2022/01/18 13:29:27;;;;;;;4.95;3.30;;;;;;;;;;5058856;28;20017;-37
2022/01/18 13:32:06;;;;;;;5.88;4.93;;;;;;;;;;5048545;28;20526;-38
2022/01/18 13:34:33;;;;;;;7.07;4.07;;;;;;;;;;5053656;28;20012;-38
2022/01/18 13:37:00;;;;;;;4.50;3.80;;;;;;;;;;5055404;28;20029;-40
2022/01/18 13:39:28;;;;;;;8.07;3.92;;;;;;;;;;5052332;28;20021;-38
2022/01/18 13:41:54;;;;;;;8.30;5.60;;;;;;;;;;5054266;28;20027;-37
2022/01/18 13:44:20;;;;;;;7.00;3.67;;;;;;;;;;5053611;28;20033;-41
2022/01/18 13:46:45;;;;;;;4.35;3.42;;;;;;;;;;5053281;28;20029;-38
2022/01/18 13:49:11;;;;;;;3.67;3.15;;;;;;;;;;5053494;28;20048;-37
2022/01/18 13:51:36;;;;;;;11.45;4.88;;;;;;;;;;5053074;28;20466;-40
2022/01/18 13:54:05;;;;;;;6.07;2.70;;;;;;;;;;5049429;28;20032;-38
2022/01/18 13:56:30;;;;;;;10.88;4.50;;;;;;;;;;5052085;28;20057;-37
2022/01/18 13:59:00;;;;;;;9.43;5.75;;;;;;;;;;5058659;28;20542;-37
2022/01/18 14:01:28;;;;;;;9.75;5.03;;;;;;;;;;5052578;28;20024;-37
2022/01/18 14:03:53;;;;;;;9.77;3.78;;;;;;;;;;5055302;28;20120;-37
2022/01/18 14:06:20;;;;;;;4.60;2.78;;;;;;;;;;5050702;28;20025;-38
2022/01/18 14:08:49;;;;;;;7.25;4.63;;;;;;;;;;5053909;28;20056;-38
2022/01/18 14:11:18;;;;;;;6.72;5.82;;;;;;;;;;5052010;28;20027;-37
2022/01/18 14:13:44;;;;;;;6.90;6.00;;;;;;;;;;5054172;28;20536;-38
2022/01/18 14:16:28;;;;;;;9.60;7.95;;;;;;;;;;5052432;28;20022;-38
2022/01/18 14:18:58;;;;;;;7.25;5.53;;;;;;;;;;5053452;28;20090;-37
2022/01/18 14:21:26;;;;;;;6.28;3.47;;;;;;;;;;5053582;28;20017;-38
2022/01/18 14:24:13;;;;;;;12.73;4.22;;;;;;;;;;5059323;28;20024;-37
2022/01/18 14:26:41;;;;;;;9.05;7.20;;;;;;;;;;5055004;28;20505;-38
2022/01/18 14:29:06;;;;;;;6.15;5.15;;;;;;;;;;5055196;28;20032;-38
2022/01/18 14:31:32;;;;;;;8.40;6.45;;;;;;;;;;5055825;28;20024;-37
2022/01/18 14:33:57;;;;;;;8.55;6.15;;;;;;;;;;5051514;28;20014;-37
2022/01/18 14:36:22;;;;;;;8.90;8.00;;;;;;;;;;5059888;28;20508;-37
2022/01/18 14:38:48;;;;;;;7.50;5.60;;;;;;;;;;5055442;28;20021;-38
2022/01/18 14:41:20;;;;;;;10.80;9.77;;;;;;;;;;5055161;28;20066;-38
2022/01/18 14:43:45;;;;;;;7.97;5.13;;;;;;;;;;5056413;28;20032;-37
2022/01/18 14:46:26;;;;;;;9.90;4.95;;;;;;;;;;5057373;28;20017;-38
2022/01/18 14:48:58;;;;;;;9.35;6.45;;;;;;;;;;5051267;28;20025;-37
2022/01/18 14:51:26;;;;;;;11.45;6.75;;;;;;;;;;5052671;28;20055;-39
2022/01/18 14:53:52;;;;;;;6.90;5.18;;;;;;;;;;5056203;28;20029;-38
2022/01/18 14:56:17;;;;;;;8.38;5.00;;;;;;;;;;5055008;28;20052;-38
2022/01/18 14:58:43;;;;;;;6.97;6.25;;;;;;;;;;5057056;28;20163;-38
2022/01/18 15:01:08;;;;;;;6.53;5.93;;;;;;;;;;5057293;28;20025;-37
2022/01/18 15:03:33;;;;;;;8.68;6.50;;;;;;;;;;5052689;28;20052;-39
2022/01/18 15:05:59;;;;;;;4.45;4.05;;;;;;;;;;5054533;28;20020;-37
2022/01/18 15:08:24;;;;;;;7.00;4.05;;;;;;;;;;5056913;28;20024;-37
2022/01/18 15:10:49;;;;;;;7.22;6.53;;;;;;;;;;5056445;28;20029;-40
2022/01/18 15:13:15;;;;;;;7.72;5.93;;;;;;;;;;5056743;28;20112;-37
2022/01/18 15:15:40;;;;;;;8.25;6.40;;;;;;;;;;5053284;28;20036;-38
2022/01/18 15:18:05;;;;;;;10.68;9.07;;;;;;;;;;5050490;28;20027;-37
2022/01/18 15:20:31;;;;;;;20.20;11.65;;;;;;;;;;5050034;28;20029;-39
2022/01/18 15:22:56;;;;;;;9.23;6.88;;;;;;;;;;5054365;28;20036;-39
2022/01/18 15:25:24;;;;;;;7.30;5.45;;;;;;;;;;5053370;28;20039;-38
2022/01/18 15:27:50;;;;;;;13.88;12.25;;;;;;;;;;5047324;28;20025;-37
2022/01/18 15:30:15;;;;;;;10.88;9.65;;;;;;;;;;5051227;28;20027;-38
2022/01/18 15:32:41;;;;;;;13.07;11.13;;;;;;;;;;5052448;28;20017;-37
2022/01/18 15:35:07;;;;;;;17.20;10.35;;;;;;;;;;5055852;28;20474;-37
2022/01/18 15:37:32;;;;;;;11.52;10.32;;;;;;;;;;5056742;28;20024;-38
2022/01/18 15:40:01;;;;;;;16.45;12.82;;;;;;;;;;5057604;28;20448;-37
2022/01/18 15:42:26;;;;;;;27.42;18.15;;;;;;;;;;5054175;28;20029;-37
2022/01/18 15:44:51;;;;;;;24.85;20.92;;;;;;;;;;5051660;28;20036;-38
2022/01/18 15:47:17;;;;;;;18.10;14.13;;;;;;;;;;5053580;28;20497;-39
2022/01/18 15:49:42;;;;;;;24.60;16.52;;;;;;;;;;5054072;28;20024;-36
2022/01/18 15:52:08;;;;;;;24.30;19.75;;;;;;;;;;5054630;28;20032;-38
2022/01/18 15:54:33;;;;;;;26.25;17.38;;;;;;;;;;5051347;28;20020;-37